Crosby, TX

2:01 AM CDT on October 26, 2014 (GMT -0500)
Houston / Dunn Helistop | Change Station
CLOSE
Current Station
Airport
Location: Houston / Dunn Helistop,
Elevation: 226 ft
Nearby Weather Stations

Elev 226 ft 29.71 °N, 95.40 °W | Updated 26 minutes ago

Clear
Clear
68 °F
Feels Like 68 °F
N
0
Wind Variable Wind from North

Today
High -- | Low -- °F
--% Chance of Precip.
Yesterday
High -- | Low -- °F
Precip. -- in
7:29 AM 6:38 PM
Waxing Crescent, 6% visible
Pressure 30.04 in
Visibility 10.0 miles
Clouds Clear
Dew Point 59 °F
Humidity 73%
Rainfall 0.00 in
Snow Depth Not available.
UV 0 out of 12
Pollen 4.40 out of 12
Ozone Good
PM2.5 Moderate
Flu Activity Local Activity
METAR KMCJ 260635Z AUTO 00000KT 10SM CLR 20/15 A3004 RMK AO1

More Conditions Fewer Conditions

Pressure 30.04 in
Visibility 10.0 miles
Clouds Clear
Dew Point 59 °F
Humidity 73%
Rainfall 0.00 in
Snow Depth Not available.
UV 0 out of 12
Pollen 4.40 out of 12
Ozone Good
PM2.5 Moderate
Flu Activity Local Activity
METAR KMCJ 260635Z AUTO 00000KT 10SM CLR 20/15 A3004 RMK AO1

More Conditions Fewer Conditions

10-Day Weather Forecast

Almanac

Astronomy

Oct. 26, 2014 Rise Set
Actual Time 7:29 AM CDT 6:38 PM CDT
Civil Twilight 7:05 AM CDT 7:02 PM CDT
Nautical Twilight 6:37 AM CDT 7:30 PM CDT
Astronomical Twilight 6:09 AM CDT 7:58 PM CDT
Moon 10:01 AM CDT 8:58 PM CDT
Length of Visible Light 11h 57m
Length of Day
11h 08m
Tomorrow will be 1m 38s shorter.
Waxing Crescent, 6% of the Moon is Illuminated
Today
Waxing Crescent
Oct 30
First Quarter
Nov 6
Full
Nov 14
Last Quarter
Nov 22
New

Today's Extremes

State Highs State Lows

Community

WunderPhotos

Upload Photos

1,765,115 photos uploaded!

Nearby

Air Quality

  Air Quality AQ Index Pollutant
Yesterday Moderate
OZONE
Yesterday Moderate
PM2.5
Current Moderate
PM2.5
Current Good
OZONE
Sunday Moderate
OZONE
Sunday Good
PM10
Monday Good
OZONE
Monday Good
PM10
Tuesday Good
OZONE
Tuesday Good
PM10

Snow Depth

Station Depth Elevation
No new snow has been reported.

Earthquake Activity

City Distance Mag. Time & Date
No recent earthquake activity has been reported nearby.
Minimum magnitude displayed is 2.5.

Coastal Water Temperatures

Place Temperature
Eagle Point, TX 73.9 °F
USCG Freeport, TX 75.0 °F
Galveston Pier TX 73.9 °F
Galveston Bay (North Jetty), TX 75.0 °F
Rollover Pass, TX 73.0 °F

Nearby Weather Stations